Time;durP1;ratioP1;P1;durP2;ratioP2;P2;SDS_P1;SDS_P2;PMS_P1;PMS_P2;Temp;Humidity;BMP_temperature;BMP_pressure;BME280_temperature;BME280_humidity;BME280_pressure;Samples;Min_cycle;Max_cycle;Signal;HPM_P1;HPM_P2
2021/04/07 00:02:07;;;;;;;9.02;6.88;;;10.70;99.70;;;;;;4967606;28;20042;-84
2021/04/07 00:04:34;;;;;;;9.90;6.60;;;10.50;99.70;;;;;;4972217;28;20494;-79
2021/04/07 00:07:01;;;;;;;9.18;6.80;;;10.30;99.90;;;;;;4971801;28;20031;-84
2021/04/07 00:09:27;;;;;;;10.20;6.78;;;10.30;99.90;;;;;;4972449;28;20042;-84
2021/04/07 00:11:53;;;;;;;8.95;7.10;;;10.30;99.90;;;;;;4971913;28;20030;-81
2021/04/07 00:14:19;;;;;;;9.13;6.72;;;10.30;99.90;;;;;;4972048;28;20038;-79
2021/04/07 00:16:49;;;;;;;9.18;6.55;;;10.20;99.90;;;;;;4971321;28;20027;-79
2021/04/07 00:19:16;;;;;;;9.55;6.93;;;10.20;99.90;;;;;;4971969;28;20034;-76
2021/04/07 00:21:42;;;;;;;8.35;6.35;;;10.10;99.90;;;;;;4972471;28;20043;-78
2021/04/07 00:24:08;;;;;;;9.80;6.63;;;10.10;99.90;;;;;;4972552;28;20092;-80
2021/04/07 00:26:35;;;;;;;8.65;6.28;;;10.20;99.90;;;;;;4971938;28;20525;-81
2021/04/07 00:29:01;;;;;;;10.20;6.93;;;10.20;99.90;;;;;;4971783;28;20126;-82
2021/04/07 00:31:27;;;;;;;11.48;6.90;;;10.20;99.90;;;;;;4972655;28;20038;-80
2021/04/07 00:33:52;;;;;;;9.93;6.55;;;9.90;99.90;;;;;;4974289;28;20027;-81
2021/04/07 00:36:18;;;;;;;9.88;7.32;;;10.30;99.90;;;;;;4976535;28;20023;-82
2021/04/07 00:38:45;;;;;;;11.32;7.25;;;10.30;99.90;;;;;;4975954;28;20709;-84
2021/04/07 00:41:11;;;;;;;14.20;7.03;;;10.30;99.90;;;;;;4975454;28;20034;-83
2021/04/07 00:43:37;;;;;;;9.35;6.78;;;10.30;99.90;;;;;;4965350;28;20031;-82
2021/04/07 00:46:03;;;;;;;8.82;6.28;;;10.40;99.60;;;;;;4976592;28;20398;-82
2021/04/07 00:48:29;;;;;;;8.80;6.57;;;10.40;99.70;;;;;;4973634;28;20058;-83
2021/04/07 00:50:55;;;;;;;12.65;7.03;;;9.70;99.90;;;;;;4975651;28;20398;-81
2021/04/07 00:53:21;;;;;;;10.90;6.85;;;9.50;99.90;;;;;;4975955;28;20518;-81
2021/04/07 00:55:47;;;;;;;9.55;6.90;;;9.80;99.90;;;;;;4975444;28;20034;-79
2021/04/07 00:58:15;;;;;;;14.23;9.10;;;9.60;99.90;;;;;;4975291;28;20042;-78
2021/04/07 01:00:41;;;;;;;13.07;8.48;;;9.20;99.90;;;;;;4978857;28;20073;-80
2021/04/07 01:03:07;;;;;;;13.43;8.25;;;8.20;99.90;;;;;;4974550;28;20094;-79
2021/04/07 01:05:34;;;;;;;13.70;9.18;;;7.90;99.90;;;;;;4975440;28;20418;-79
2021/04/07 01:08:00;;;;;;;12.23;8.68;;;7.60;99.90;;;;;;4975077;28;20169;-79
2021/04/07 01:10:26;;;;;;;11.18;7.45;;;7.70;99.90;;;;;;4975323;28;20026;-80
2021/04/07 01:12:53;;;;;;;9.35;6.28;;;7.50;99.90;;;;;;4974855;28;20027;-79
2021/04/07 01:15:19;;;;;;;10.68;7.45;;;7.40;99.90;;;;;;4975561;28;20031;-85
2021/04/07 01:17:45;;;;;;;8.65;6.50;;;7.40;99.90;;;;;;4974047;28;20693;-78
2021/04/07 01:20:14;;;;;;;8.38;6.10;;;6.90;99.90;;;;;;4976092;28;20034;-77
2021/04/07 01:22:41;;;;;;;7.38;6.07;;;7.00;99.90;;;;;;4974995;28;20054;-82
2021/04/07 01:25:11;;;;;;;7.63;6.22;;;6.70;99.90;;;;;;4975494;28;20074;-81
2021/04/07 01:27:38;;;;;;;10.88;6.15;;;6.80;99.90;;;;;;4975484;28;20025;-79
2021/04/07 01:30:16;;;;;;;6.75;5.97;;;6.60;99.90;;;;;;4965513;28;20022;-80
2021/04/07 01:32:42;;;;;;;7.20;5.65;;;6.20;99.90;;;;;;4974987;28;20031;-82
2021/04/07 01:35:11;;;;;;;7.45;5.80;;;6.40;99.90;;;;;;4973111;28;20441;-81
2021/04/07 01:37:37;;;;;;;6.32;5.65;;;6.10;99.90;;;;;;4974614;28;20494;-80
2021/04/07 01:40:06;;;;;;;7.57;5.30;;;6.10;99.90;;;;;;4973566;28;20448;-79
2021/04/07 01:42:33;;;;;;;5.38;4.78;;;5.90;99.90;;;;;;4973430;28;20149;-81
2021/04/07 01:45:01;;;;;;;11.00;5.45;;;5.90;99.90;;;;;;4974401;28;20038;-78
2021/04/07 01:47:28;;;;;;;5.60;4.65;;;6.10;99.90;;;;;;4974213;28;20023;-79
2021/04/07 01:49:55;;;;;;;4.97;4.45;;;6.00;99.90;;;;;;4974710;28;20033;-78
2021/04/07 01:52:20;;;;;;;7.47;4.40;;;5.50;99.90;;;;;;4974852;28;20077;-79
2021/04/07 01:54:46;;;;;;;5.50;4.40;;;5.70;99.90;;;;;;4975106;28;20031;-82
2021/04/07 01:57:12;;;;;;;4.88;4.25;;;5.80;99.90;;;;;;4975096;28;20181;-77
2021/04/07 01:59:38;;;;;;;4.75;4.25;;;5.80;99.90;;;;;;4974609;28;20031;-80
2021/04/07 02:02:04;;;;;;;4.63;4.15;;;5.50;99.90;;;;;;4974595;28;20039;-81
2021/04/07 02:04:29;;;;;;;4.30;3.90;;;5.40;99.90;;;;;;4974416;28;20026;-80
2021/04/07 02:06:56;;;;;;;4.20;3.80;;;5.20;99.90;;;;;;4974941;28;20530;-76
2021/04/07 02:09:23;;;;;;;4.80;3.63;;;5.20;99.90;;;;;;4974604;28;20082;-80
2021/04/07 02:11:51;;;;;;;4.10;3.70;;;5.10;99.90;;;;;;4974314;28;20054;-79
2021/04/07 02:14:22;;;;;;;4.35;3.95;;;5.20;99.90;;;;;;4974421;28;20119;-77
2021/04/07 02:16:59;;;;;;;3.55;3.25;;;5.10;99.90;;;;;;4974400;28;20022;-80
2021/04/07 02:19:26;;;;;;;3.83;3.53;;;5.10;99.90;;;;;;4970259;28;20023;-77
2021/04/07 02:22:12;;;;;;;4.00;3.50;;;4.80;99.90;;;;;;4972973;28;20426;-82
2021/04/07 02:24:40;;;;;;;4.30;3.90;;;4.90;99.90;;;;;;4973953;28;20047;-83
2021/04/07 02:27:20;;;;;;;4.15;3.75;;;5.20;99.90;;;;;;4974445;28;20041;-82
2021/04/07 02:29:55;;;;;;;4.32;3.90;;;5.10;99.90;;;;;;4974524;28;20033;-81
2021/04/07 02:32:22;;;;;;;4.28;3.88;;;4.90;99.90;;;;;;4962020;28;20046;-81
2021/04/07 02:34:48;;;;;;;4.20;3.80;;;5.20;99.90;;;;;;4971668;28;20114;-80
2021/04/07 02:37:15;;;;;;;4.13;3.72;;;4.80;99.90;;;;;;4974456;28;20158;-81
2021/04/07 02:39:42;;;;;;;4.28;3.88;;;4.90;99.90;;;;;;4973034;28;20084;-81
2021/04/07 02:42:09;;;;;;;4.18;3.72;;;4.90;99.90;;;;;;4974149;28;20033;-79
2021/04/07 02:44:36;;;;;;;4.15;3.72;;;4.70;99.90;;;;;;4971962;28;20050;-80
2021/04/07 02:47:02;;;;;;;4.10;3.70;;;5.00;99.90;;;;;;4974524;28;20023;-77
2021/04/07 02:49:28;;;;;;;4.18;3.78;;;5.10;99.90;;;;;;4968608;28;20027;-82
2021/04/07 02:51:55;;;;;;;4.05;3.65;;;5.00;99.90;;;;;;4973748;28;20062;-81
2021/04/07 02:54:21;;;;;;;3.92;3.55;;;5.30;99.90;;;;;;4968686;28;20034;-82
2021/04/07 02:56:47;;;;;;;3.85;3.42;;;4.50;99.90;;;;;;4974327;28;20034;-77
2021/04/07 02:59:13;;;;;;;4.28;3.88;;;4.40;99.90;;;;;;4973225;28;20413;-81
2021/04/07 03:01:39;;;;;;;4.15;3.75;;;4.50;99.90;;;;;;4973198;28;20659;-80
2021/04/07 03:04:05;;;;;;;4.28;3.88;;;4.40;99.90;;;;;;4973227;28;20038;-76
2021/04/07 03:06:31;;;;;;;4.57;4.18;;;4.40;99.90;;;;;;4973110;28;20027;-79
2021/04/07 03:08:57;;;;;;;3.88;3.58;;;4.40;99.90;;;;;;4973305;28;20031;-80
2021/04/07 03:11:23;;;;;;;4.47;4.07;;;4.10;99.90;;;;;;4973299;28;20101;-80
2021/04/07 03:13:49;;;;;;;4.57;4.18;;;4.10;99.90;;;;;;4973348;28;20097;-78
2021/04/07 03:16:14;;;;;;;4.38;3.80;;;3.90;99.90;;;;;;4971709;28;20457;-79
2021/04/07 03:18:40;;;;;;;4.20;3.80;;;3.80;99.90;;;;;;4973046;28;20428;-77
2021/04/07 03:21:07;;;;;;;3.63;3.33;;;3.80;99.90;;;;;;4973674;28;20082;-78
2021/04/07 03:23:32;;;;;;;5.35;3.97;;;3.80;99.90;;;;;;4970321;28;20043;-78
2021/04/07 03:25:58;;;;;;;4.53;4.13;;;3.90;99.90;;;;;;4973464;28;20031;-76
2021/04/07 03:28:24;;;;;;;4.60;4.10;;;4.10;99.90;;;;;;4971387;28;20033;-80
2021/04/07 03:30:51;;;;;;;4.10;3.70;;;4.00;99.90;;;;;;4972903;28;20074;-83
2021/04/07 03:33:22;;;;;;;4.40;4.00;;;3.90;99.90;;;;;;4972919;28;20428;-77
2021/04/07 03:35:49;;;;;;;4.03;3.63;;;3.90;99.90;;;;;;4968816;28;20130;-79
2021/04/07 03:38:15;;;;;;;4.45;4.05;;;4.10;99.90;;;;;;4972974;28;20022;-80
2021/04/07 03:40:41;;;;;;;5.45;4.10;;;3.80;99.90;;;;;;4972884;28;20589;-80
2021/04/07 03:43:11;;;;;;;4.13;3.72;;;3.80;99.90;;;;;;4973123;28;20042;-79
2021/04/07 03:45:42;;;;;;;4.47;4.07;;;3.80;99.90;;;;;;4972633;28;20117;-79
2021/04/07 03:48:10;;;;;;;4.47;4.05;;;3.90;99.90;;;;;;4973091;28;20042;-79
2021/04/07 03:50:36;;;;;;;4.40;4.00;;;4.10;99.90;;;;;;4972620;28;20039;-75
2021/04/07 03:53:02;;;;;;;3.80;3.50;;;4.00;99.90;;;;;;4973139;28;20494;-78
2021/04/07 03:55:27;;;;;;;5.57;4.28;;;4.00;99.90;;;;;;4972682;28;20041;-79
2021/04/07 03:57:53;;;;;;;4.32;3.92;;;4.30;99.90;;;;;;4973198;28;20085;-77
2021/04/07 04:00:19;;;;;;;4.65;4.00;;;4.40;99.90;;;;;;4972372;28;20382;-75
2021/04/07 04:02:45;;;;;;;4.43;4.03;;;4.50;99.90;;;;;;4971527;28;20043;-76
2021/04/07 04:05:11;;;;;;;4.45;4.05;;;4.10;99.90;;;;;;4971359;28;20045;-78
2021/04/07 04:07:37;;;;;;;4.43;4.00;;;4.00;99.90;;;;;;4970674;28;20041;-76
2021/04/07 04:10:03;;;;;;;4.32;3.92;;;4.10;99.90;;;;;;4968398;28;20038;-80
2021/04/07 04:12:29;;;;;;;4.78;4.05;;;4.20;99.90;;;;;;4972363;28;20047;-79
2021/04/07 04:14:56;;;;;;;5.72;4.20;;;4.10;99.90;;;;;;4972345;28;20073;-81
2021/04/07 04:17:22;;;;;;;4.85;3.97;;;4.20;99.90;;;;;;4970370;28;20086;-81
2021/04/07 04:19:49;;;;;;;4.72;4.30;;;4.40;99.90;;;;;;4970326;28;20035;-74
2021/04/07 04:22:17;;;;;;;4.07;3.67;;;4.20;99.90;;;;;;4972466;28;20114;-80
2021/04/07 04:24:43;;;;;;;4.95;4.45;;;4.50;99.90;;;;;;4971438;28;20053;-80
2021/04/07 04:27:09;;;;;;;5.55;4.18;;;4.20;99.90;;;;;;4972530;28;20232;-79
2021/04/07 04:29:36;;;;;;;4.68;4.25;;;4.20;99.90;;;;;;4971864;28;20027;-78
2021/04/07 04:32:02;;;;;;;4.75;4.30;;;4.30;99.90;;;;;;4971787;28;20071;-76
2021/04/07 04:34:29;;;;;;;4.60;4.20;;;4.10;99.90;;;;;;4971709;28;20042;-76
2021/04/07 04:36:54;;;;;;;4.43;4.03;;;4.20;99.90;;;;;;4970019;28;20566;-80
2021/04/07 04:39:20;;;;;;;4.85;4.35;;;4.30;99.90;;;;;;4972202;28;20031;-78
2021/04/07 04:41:46;;;;;;;4.65;4.22;;;4.40;99.90;;;;;;4971788;28;20091;-77
2021/04/07 04:44:12;;;;;;;4.40;4.00;;;4.40;99.90;;;;;;4971245;28;20031;-77
2021/04/07 04:46:38;;;;;;;5.38;4.60;;;4.00;99.90;;;;;;4972340;28;20066;-79
2021/04/07 04:49:03;;;;;;;5.20;4.40;;;4.10;99.90;;;;;;4971436;28;20042;-78
2021/04/07 04:51:29;;;;;;;5.68;4.38;;;4.20;99.90;;;;;;4971761;28;20070;-76
2021/04/07 04:53:55;;;;;;;4.85;4.30;;;4.10;99.90;;;;;;4970923;28;20031;-79
2021/04/07 04:56:21;;;;;;;5.03;4.53;;;4.20;99.90;;;;;;4972569;28;20113;-77
2021/04/07 04:58:47;;;;;;;4.50;4.10;;;4.00;99.90;;;;;;4971639;28;20031;-79
2021/04/07 05:01:13;;;;;;;4.88;4.45;;;4.10;99.90;;;;;;4971612;28;20034;-75
2021/04/07 05:03:39;;;;;;;4.05;3.65;;;4.00;99.90;;;;;;4972473;28;20117;-79
2021/04/07 05:06:05;;;;;;;4.88;4.38;;;3.80;99.90;;;;;;4972372;28;20023;-79
2021/04/07 05:08:30;;;;;;;4.53;4.13;;;4.00;99.90;;;;;;4970521;28;20340;-79
2021/04/07 05:10:56;;;;;;;4.65;4.25;;;3.90;99.90;;;;;;4971863;28;20566;-80
2021/04/07 05:13:22;;;;;;;4.60;4.20;;;4.10;99.90;;;;;;4971524;28;20235;-77
2021/04/07 05:15:48;;;;;;;7.60;5.90;;;4.00;99.90;;;;;;4971989;28;20030;-81
2021/04/07 05:18:15;;;;;;;6.68;5.20;;;4.40;99.90;;;;;;4974342;28;20041;-75
2021/04/07 05:20:42;;;;;;;14.35;7.55;;;4.60;99.90;;;;;;4972808;28;20610;-81
2021/04/07 05:23:09;;;;;;;4.60;4.20;;;4.90;99.90;;;;;;4975550;28;20109;-80
2021/04/07 05:25:36;;;;;;;4.05;3.65;;;4.00;99.90;;;;;;4974659;28;20027;-80
2021/04/07 05:28:03;;;;;;;6.05;4.43;;;4.10;99.90;;;;;;4975334;28;20031;-83
2021/04/07 05:30:58;;;;;;;4.60;4.20;;;4.20;99.90;;;;;;4974635;28;20111;-80
2021/04/07 05:33:16;;;;;;;4.50;4.05;;;4.00;99.90;;;;;;4955668;29;20047;-77
2021/04/07 05:35:42;;;;;;;5.10;4.35;;;4.00;99.90;;;;;;4969258;28;20042;-79
2021/04/07 05:38:07;;;;;;;4.97;3.97;;;4.00;99.90;;;;;;4975071;28;20042;-77
2021/04/07 05:40:33;;;;;;;5.03;4.18;;;4.00;99.90;;;;;;4974639;28;20109;-82
2021/04/07 05:43:04;;;;;;;8.85;4.00;;;3.90;99.90;;;;;;4974582;28;20026;-80
2021/04/07 05:45:30;;;;;;;;;;;4.00;99.90;;;;;;4974076;28;20165;-78
2021/04/07 05:47:56;;;;;;;4.75;4.35;;;3.90;99.90;;;;;;4974971;28;19917;-79
2021/04/07 05:50:22;;;;;;;4.65;4.22;;;3.60;99.90;;;;;;4974882;28;20030;-80
2021/04/07 05:52:51;;;;;;;4.97;4.47;;;3.70;99.90;;;;;;4971251;28;20038;-78
2021/04/07 05:55:20;;;;;;;4.90;4.40;;;3.80;99.90;;;;;;4974712;28;20023;-77
2021/04/07 05:58:00;;;;;;;5.20;4.70;;;3.50;99.90;;;;;;4973962;28;20034;-79
2021/04/07 06:00:26;;;;;;;4.78;4.38;;;3.60;99.90;;;;;;4972080;28;20095;-79
2021/04/07 06:03:00;;;;;;;4.90;4.00;;;3.40;99.90;;;;;;4970043;28;20030;-78
2021/04/07 06:05:29;;;;;;;5.03;4.53;;;3.30;99.90;;;;;;4982593;28;20231;-83
2021/04/07 06:07:56;;;;;;;5.20;4.70;;;3.40;99.90;;;;;;4974381;28;20101;-77
2021/04/07 06:10:23;;;;;;;5.28;4.75;;;3.20;99.90;;;;;;4974392;28;20089;-78
2021/04/07 06:12:48;;;;;;;5.40;4.80;;;3.40;99.90;;;;;;4973290;28;20077;-81
2021/04/07 06:15:15;;;;;;;5.47;4.88;;;3.60;99.90;;;;;;4957694;28;20023;-81
2021/04/07 06:17:43;;;;;;;6.00;4.57;;;3.50;99.90;;;;;;4979485;28;20357;-83
2021/04/07 06:20:11;;;;;;;6.30;4.97;;;3.60;99.90;;;;;;4993726;28;20028;-80
2021/04/07 06:22:37;;;;;;;4.93;4.43;;;3.80;99.90;;;;;;4993323;28;20023;-77
2021/04/07 06:25:05;;;;;;;8.55;4.93;;;4.00;99.90;;;;;;4993969;28;20401;-81
2021/04/07 06:27:31;;;;;;;5.25;4.75;;;4.30;99.90;;;;;;4986210;28;20403;-81
2021/04/07 06:30:00;;;;;;;5.10;4.60;;;4.10;99.90;;;;;;4968476;28;20027;-81
2021/04/07 06:32:28;;;;;;;5.03;4.53;;;3.70;99.90;;;;;;4973976;28;20109;-80
2021/04/07 06:34:54;;;;;;;5.18;4.68;;;3.70;99.90;;;;;;4974385;28;20027;-79
2021/04/07 06:37:20;;;;;;;6.07;4.60;;;3.80;99.90;;;;;;4974037;28;20031;-81
2021/04/07 06:39:46;;;;;;;7.22;4.65;;;4.10;99.90;;;;;;4969971;28;20031;-79
2021/04/07 06:42:12;;;;;;;7.00;4.65;;;3.90;99.90;;;;;;4964543;28;20027;-80
2021/04/07 06:44:38;;;;;;;4.63;4.20;;;4.30;99.90;;;;;;4961791;28;20027;-76
2021/04/07 06:47:07;;;;;;;6.00;4.35;;;4.10;99.90;;;;;;4954685;29;20082;-77
2021/04/07 06:49:33;;;;;;;5.68;4.65;;;4.40;99.90;;;;;;4954466;29;20106;-76
2021/04/07 06:52:02;;;;;;;5.68;4.63;;;4.30;99.90;;;;;;4954143;29;20035;-80
2021/04/07 06:54:29;;;;;;;6.47;4.60;;;4.10;99.90;;;;;;4976562;28;20504;-80
2021/04/07 06:56:55;;;;;;;5.82;4.07;;;4.30;99.90;;;;;;4993070;28;20029;-80
2021/04/07 06:59:21;;;;;;;5.57;4.22;;;4.30;99.90;;;;;;4977264;28;20101;-78
2021/04/07 07:01:47;;;;;;;5.35;4.55;;;4.60;99.90;;;;;;4964840;28;20076;-77
2021/04/07 07:04:14;;;;;;;6.57;5.18;;;4.40;99.90;;;;;;4973415;28;20410;-81
2021/04/07 07:06:45;;;;;;;7.35;5.10;;;4.80;99.90;;;;;;4973457;28;20459;-78
2021/04/07 07:09:19;;;;;;;5.40;4.90;;;4.80;99.90;;;;;;4973479;28;20030;-79
2021/04/07 07:11:49;;;;;;;4.95;4.32;;;5.10;99.90;;;;;;4975683;28;20041;-78
2021/04/07 07:14:17;;;;;;;6.50;5.22;;;4.20;99.90;;;;;;4971249;28;20027;-81
2021/04/07 07:16:53;;;;;;;5.72;5.13;;;4.80;99.90;;;;;;4973131;28;20538;-79
2021/04/07 07:19:30;;;;;;;7.22;5.57;;;4.90;99.90;;;;;;4973026;28;20030;-79
2021/04/07 07:22:01;;;;;;;6.75;5.30;;;5.00;99.90;;;;;;4973598;28;20422;-80
2021/04/07 07:24:33;;;;;;;7.47;5.38;;;4.80;99.90;;;;;;4971575;28;20403;-80
2021/04/07 07:27:04;;;;;;;11.15;6.45;;;4.60;99.90;;;;;;4972636;28;20029;-78
2021/04/07 07:29:32;;;;;;;7.15;5.90;;;4.90;99.90;;;;;;4960193;28;20025;-80
2021/04/07 07:32:06;;;;;;;8.23;5.47;;;4.90;99.90;;;;;;4953451;29;20155;-80
2021/04/07 07:34:33;;;;;;;6.35;5.53;;;4.80;99.90;;;;;;4953468;29;20475;-78
2021/04/07 07:37:01;;;;;;;7.20;5.55;;;4.50;99.90;;;;;;4954099;29;20114;-80
2021/04/07 07:39:37;;;;;;;6.03;5.28;;;4.90;99.90;;;;;;4954220;29;20050;-79
2021/04/07 07:42:09;;;;;;;6.82;6.10;;;5.10;99.90;;;;;;4953510;28;20023;-78
2021/04/07 07:44:38;;;;;;;8.07;6.20;;;4.80;99.90;;;;;;4952877;28;20107;-78
2021/04/07 07:49:39;;;;;;;6.47;5.20;;;5.80;99.90;;;;;;4967896;28;20034;-78
2021/04/07 07:52:05;;;;;;;7.75;5.95;;;5.80;99.90;;;;;;4991864;28;20089;-77
2021/04/07 07:54:31;;;;;;;9.82;6.70;;;5.80;99.90;;;;;;4991986;28;20026;-79
2021/04/07 07:56:57;;;;;;;6.18;5.40;;;6.00;99.90;;;;;;4991873;28;20034;-78
2021/04/07 07:59:30;;;;;;;13.77;6.57;;;5.90;99.90;;;;;;4972427;28;20027;-82
2021/04/07 08:01:56;;;;;;;7.55;6.35;;;5.90;99.90;;;;;;4951695;29;20034;-82
2021/04/07 08:04:26;;;;;;;19.27;13.13;;;6.10;99.90;;;;;;4952052;29;20031;-81
2021/04/07 08:06:52;;;;;;;7.43;5.53;;;5.50;99.90;;;;;;4963512;28;20038;-82
2021/04/07 08:09:18;;;;;;;6.28;5.15;;;5.20;99.90;;;;;;4986385;28;20037;-79
2021/04/07 08:11:46;;;;;;;19.08;13.70;;;5.20;99.90;;;;;;4984028;28;20038;-79
2021/04/07 08:14:17;;;;;;;41.58;25.65;;;6.10;99.90;;;;;;4980118;28;20019;-81
2021/04/07 08:16:44;;;;;;;9.40;7.30;;;6.40;99.90;;;;;;4962379;28;20030;-79
2021/04/07 08:19:11;;;;;;;7.32;5.63;;;6.50;99.90;;;;;;4960138;28;20031;-81
2021/04/07 08:21:42;;;;;;;6.47;5.15;;;6.30;99.90;;;;;;4972037;28;20027;-82
2021/04/07 08:24:11;;;;;;;5.93;4.88;;;5.80;99.90;;;;;;4972511;28;20058;-80
2021/04/07 08:26:39;;;;;;;5.97;5.38;;;5.70;99.90;;;;;;4965890;28;20030;-79
2021/04/07 08:29:06;;;;;;;6.35;5.03;;;5.90;99.90;;;;;;4979290;28;20035;-81
2021/04/07 08:31:33;;;;;;;6.43;4.97;;;5.90;99.90;;;;;;4978770;28;20121;-79
2021/04/07 08:34:03;;;;;;;7.22;5.40;;;5.20;99.90;;;;;;4985519;28;20030;-79
2021/04/07 08:36:30;;;;;;;8.40;5.40;;;5.40;99.90;;;;;;4980497;28;20037;-82
2021/04/07 08:39:11;;;;;;;7.15;5.68;;;5.30;99.90;;;;;;4982268;28;20019;-77
2021/04/07 08:41:41;;;;;;;6.07;5.28;;;5.10;99.90;;;;;;4977471;28;20034;-78
2021/04/07 08:44:08;;;;;;;6.22;5.18;;;4.70;99.90;;;;;;4991682;28;20019;-79
2021/04/07 08:46:46;;;;;;;7.57;6.13;;;4.70;99.90;;;;;;4980943;28;20034;-82
2021/04/07 08:49:39;;;;;;;5.28;4.75;;;5.10;99.90;;;;;;4978125;28;20063;-81
2021/04/07 08:52:49;;;;;;;6.35;5.43;;;5.50;99.90;;;;;;4982565;28;20037;-78
2021/04/07 08:55:28;;;;;;;7.28;5.35;;;6.30;99.90;;;;;;4976431;28;20565;-81
2021/04/07 08:58:07;;;;;;;6.40;5.32;;;6.30;99.90;;;;;;4980511;28;20043;-77
2021/04/07 09:00:35;;;;;;;7.93;5.57;;;6.00;99.90;;;;;;4973974;28;20051;-78
2021/04/07 09:03:14;;;;;;;7.35;5.68;;;5.90;99.90;;;;;;4975898;28;20085;-78
2021/04/07 09:05:48;;;;;;;6.57;5.25;;;6.50;99.90;;;;;;4975748;28;20030;-84
2021/04/07 09:08:27;;;;;;;6.60;5.38;;;7.00;99.90;;;;;;4975848;28;20387;-84
2021/04/07 09:10:58;;;;;;;8.23;6.00;;;7.40;99.90;;;;;;4966960;28;20035;-81
2021/04/07 09:13:26;;;;;;;6.95;5.93;;;7.30;99.90;;;;;;4954996;29;20019;-83
2021/04/07 09:16:05;;;;;;;8.68;6.28;;;7.00;99.90;;;;;;4956373;29;20027;-78
2021/04/07 09:18:31;;;;;;;7.10;5.20;;;7.20;99.90;;;;;;4973063;28;20673;-82
2021/04/07 09:20:59;;;;;;;7.38;5.60;;;7.30;99.90;;;;;;4984570;28;20121;-83
2021/04/07 09:23:28;;;;;;;9.82;5.82;;;7.50;99.90;;;;;;4994744;28;20046;-81
2021/04/07 09:26:10;;;;;;;7.65;6.05;;;7.80;99.90;;;;;;4976838;28;20030;-82
2021/04/07 09:28:39;;;;;;;10.63;6.70;;;7.50;99.90;;;;;;4947867;29;20041;-78
2021/04/07 09:31:26;;;;;;;10.52;6.85;;;7.70;99.90;;;;;;4947305;29;20051;-81
2021/04/07 09:33:54;;;;;;;9.52;6.65;;;7.30;99.90;;;;;;4954675;29;20362;-80
2021/04/07 09:36:36;;;;;;;8.55;6.38;;;7.10;99.90;;;;;;4953724;28;20098;-80
2021/04/07 09:39:07;;;;;;;8.77;7.63;;;6.90;99.90;;;;;;4954697;29;20023;-80
2021/04/07 09:41:35;;;;;;;11.82;7.13;;;6.50;99.90;;;;;;4952943;28;20035;-84
2021/04/07 09:44:04;;;;;;;9.73;6.93;;;6.80;99.90;;;;;;4952573;29;20031;-84
2021/04/07 09:46:30;;;;;;;9.45;6.93;;;6.40;99.90;;;;;;4955014;29;20880;-79
2021/04/07 09:48:58;;;;;;;7.25;6.15;;;6.40;99.90;;;;;;4954129;29;20118;-78
2021/04/07 09:51:28;;;;;;;8.82;6.18;;;6.20;99.90;;;;;;4957761;28;20081;-78
2021/04/07 09:54:19;;;;;;;7.80;6.60;;;6.90;99.90;;;;;;4966784;28;20390;-79
2021/04/07 09:56:48;;;;;;;;;;;7.30;99.90;;;;;;4971333;28;20378;-79
2021/04/07 09:59:14;;;;;;;8.15;5.88;;;7.10;99.90;;;;;;4971033;28;20321;-76
2021/04/07 10:01:40;;;;;;;8.40;6.10;;;6.90;99.90;;;;;;4973073;28;20678;-76
2021/04/07 10:04:08;;;;;;;7.90;5.72;;;7.00;99.90;;;;;;4971950;28;20035;-77
2021/04/07 10:06:34;;;;;;;7.97;6.30;;;6.80;99.90;;;;;;4957144;28;20050;-76
2021/04/07 10:09:05;;;;;;;8.15;6.20;;;6.80;99.90;;;;;;4953636;29;20079;-77
2021/04/07 10:11:35;;;;;;;9.65;6.55;;;7.10;99.90;;;;;;4961735;28;20031;-79
2021/04/07 10:14:01;;;;;;;8.18;6.38;;;6.90;99.90;;;;;;4971897;28;20098;-75
2021/04/07 10:16:40;;;;;;;7.80;6.63;;;6.80;99.90;;;;;;4973164;28;20054;-77
2021/04/07 10:19:08;;;;;;;8.80;6.30;;;7.40;99.90;;;;;;4969807;28;20042;-76
2021/04/07 10:21:34;;;;;;;10.25;7.13;;;7.30;99.90;;;;;;4959078;28;20039;-75
2021/04/07 10:24:01;;;;;;;9.52;6.70;;;7.60;99.90;;;;;;4953919;28;20589;-78
2021/04/07 10:26:27;;;;;;;7.72;6.28;;;7.40;99.90;;;;;;4958686;28;20402;-81
2021/04/07 10:29:00;;;;;;;9.93;7.10;;;7.20;99.90;;;;;;4971488;28;20467;-79
2021/04/07 10:31:28;;;;;;;8.55;7.15;;;7.20;99.90;;;;;;4958978;28;20053;-81
2021/04/07 10:34:07;;;;;;;9.68;6.65;;;7.40;99.90;;;;;;4979827;28;20101;-78
2021/04/07 10:36:36;;;;;;;8.25;6.65;;;7.40;99.90;;;;;;4980430;28;20039;-77
2021/04/07 10:39:17;;;;;;;7.53;6.22;;;7.30;99.90;;;;;;4992190;28;20022;-77
2021/04/07 10:41:54;;;;;;;8.00;6.20;;;7.20;99.90;;;;;;4987047;28;20030;-78
2021/04/07 10:44:25;;;;;;;8.35;5.75;;;7.20;99.90;;;;;;4974285;28;20065;-76
2021/04/07 10:46:51;;;;;;;7.45;6.40;;;7.30;99.90;;;;;;4957901;28;20033;-84
2021/04/07 10:49:18;;;;;;;7.20;5.95;;;7.30;99.90;;;;;;4968573;28;20046;-81
2021/04/07 10:51:45;;;;;;;7.18;5.57;;;7.30;99.90;;;;;;4973603;28;20047;-80
2021/04/07 10:54:11;;;;;;;7.30;5.93;;;7.30;99.90;;;;;;4989065;28;20041;-81
2021/04/07 10:56:38;;;;;;;6.63;5.53;;;7.40;99.90;;;;;;4985461;28;20431;-77
2021/04/07 10:59:12;;;;;;;7.15;6.10;;;7.50;99.90;;;;;;4971650;28;20081;-79
2021/04/07 11:01:39;;;;;;;8.60;6.38;;;7.40;99.90;;;;;;4953284;28;20027;-80
2021/04/07 11:04:18;;;;;;;15.50;10.75;;;7.50;99.90;;;;;;4973280;28;20015;-80
2021/04/07 11:06:44;;;;;;;19.73;12.20;;;7.70;99.90;;;;;;4950546;29;20027;-83
2021/04/07 11:09:16;;;;;;;13.45;8.80;;;7.40;99.90;;;;;;4952769;29;20114;-81
2021/04/07 11:11:43;;;;;;;9.90;6.97;;;7.50;99.90;;;;;;4952716;29;20059;-78
2021/04/07 11:14:12;;;;;;;8.00;6.47;;;7.60;99.90;;;;;;4952894;29;20119;-77
2021/04/07 11:16:38;;;;;;;9.35;6.80;;;8.30;99.90;;;;;;4960059;28;20542;-83
2021/04/07 11:19:15;;;;;;;9.52;7.43;;;8.30;99.90;;;;;;4972988;28;20139;-80
2021/04/07 11:21:41;;;;;;;8.75;6.82;;;8.30;99.90;;;;;;4972722;28;20383;-80
2021/04/07 11:24:07;;;;;;;10.10;6.70;;;7.50;99.90;;;;;;4972959;28;20078;-86
2021/04/07 11:26:33;;;;;;;9.93;7.45;;;7.60;99.90;;;;;;4973151;28;20039;-79
2021/04/07 11:28:59;;;;;;;9.27;6.72;;;7.50;99.90;;;;;;4972994;28;20081;-88
2021/04/07 11:31:28;;;;;;;8.77;6.28;;;7.80;99.90;;;;;;4972184;28;20039;-83
2021/04/07 11:33:59;;;;;;;7.60;5.90;;;7.70;99.90;;;;;;4973177;28;20035;-81
2021/04/07 11:36:47;;;;;;;8.63;6.53;;;8.00;99.90;;;;;;4973267;28;20097;-80
2021/04/07 11:40:03;;;;;;;11.27;6.50;;;7.90;99.90;;;;;;4973216;28;20325;-79
2021/04/07 11:42:12;;;;;;;8.68;6.70;;;8.20;99.90;;;;;;4966980;28;20046;-80
2021/04/07 11:44:38;;;;;;;7.88;6.53;;;8.60;99.90;;;;;;4972557;28;20026;-78
2021/04/07 11:47:04;;;;;;;8.32;6.82;;;8.80;99.90;;;;;;4973008;28;20081;-83
2021/04/07 11:49:31;;;;;;;9.05;6.72;;;8.90;99.90;;;;;;4972420;28;20034;-82
2021/04/07 11:51:57;;;;;;;21.80;15.07;;;8.40;99.90;;;;;;4973151;28;20391;-84
2021/04/07 11:54:23;;;;;;;11.02;8.60;;;8.00;99.90;;;;;;4972515;28;20030;-78
2021/04/07 11:56:49;;;;;;;7.93;6.90;;;7.10;99.90;;;;;;4971536;28;20026;-83
2021/04/07 11:59:23;;;;;;;7.75;6.60;;;6.90;99.90;;;;;;4972506;28;20097;-80
2021/04/07 12:01:51;;;;;;;8.32;6.50;;;7.20;99.90;;;;;;4972325;28;20033;-81
2021/04/07 12:04:17;;;;;;;10.93;7.13;;;7.60;99.90;;;;;;4972593;28;20023;-78
2021/04/07 12:06:43;;;;;;;9.05;6.57;;;7.80;99.90;;;;;;4972284;28;20030;-78
2021/04/07 12:09:09;;;;;;;8.23;6.43;;;8.00;99.90;;;;;;4972788;28;20030;-80
2021/04/07 12:11:36;;;;;;;9.13;6.60;;;8.10;99.90;;;;;;4971011;28;20047;-79
2021/04/07 12:14:03;;;;;;;9.15;6.75;;;8.00;99.90;;;;;;4972610;28;20366;-79
2021/04/07 12:16:29;;;;;;;10.25;7.20;;;8.10;99.90;;;;;;4972044;28;20038;-77
2021/04/07 12:18:55;;;;;;;9.27;7.32;;;8.20;99.90;;;;;;4971309;28;20023;-82
2021/04/07 12:21:22;;;;;;;8.48;6.82;;;8.20;99.90;;;;;;4972216;28;20445;-80
2021/04/07 12:23:47;;;;;;;9.55;7.00;;;8.00;99.90;;;;;;4972215;28;20035;-78
2021/04/07 12:26:14;;;;;;;8.43;6.80;;;7.80;99.90;;;;;;4971167;28;20045;-80
2021/04/07 12:28:44;;;;;;;8.93;6.95;;;7.90;99.90;;;;;;4973508;28;20046;-81
2021/04/07 12:31:13;;;;;;;8.57;7.00;;;8.00;99.90;;;;;;4970901;28;20616;-78
2021/04/07 12:33:40;;;;;;;8.65;7.03;;;8.10;99.90;;;;;;4971955;28;20027;-81
2021/04/07 12:36:09;;;;;;;10.85;7.10;;;8.00;99.90;;;;;;4971351;28;20079;-76
2021/04/07 12:38:35;;;;;;;9.05;7.05;;;7.70;99.90;;;;;;4972548;28;20129;-79
2021/04/07 12:41:08;;;;;;;11.15;7.22;;;7.80;99.90;;;;;;4972008;28;20041;-79
2021/04/07 12:43:33;;;;;;;9.00;7.05;;;7.90;99.90;;;;;;4970409;28;20034;-80
2021/04/07 12:46:00;;;;;;;8.23;7.15;;;7.90;99.90;;;;;;4971714;28;20027;-80
2021/04/07 12:48:25;;;;;;;10.75;7.47;;;7.90;99.90;;;;;;4971593;28;20034;-81
2021/04/07 12:50:51;;;;;;;9.82;7.30;;;7.80;99.90;;;;;;4971442;28;20039;-79
2021/04/07 12:53:20;;;;;;;9.90;7.05;;;8.00;99.90;;;;;;4972334;28;20030;-80
2021/04/07 12:55:46;;;;;;;13.20;8.30;;;8.00;99.90;;;;;;4970031;28;20134;-81
2021/04/07 12:58:12;;;;;;;10.27;7.85;;;7.80;99.90;;;;;;4972258;28;20106;-78
2021/04/07 13:00:38;;;;;;;9.10;7.05;;;7.60;99.90;;;;;;4972158;28;20139;-81
2021/04/07 13:03:04;;;;;;;8.60;7.50;;;7.40;99.90;;;;;;4962633;28;20459;-76
2021/04/07 13:05:30;;;;;;;8.77;7.22;;;7.70;99.90;;;;;;4983133;28;20041;-75